Terminal Aerodrome Forecast
Issued by NWS

Home | Current Version | Previous Version | Text Only | Print | Product List | Glossary On
Versions: 1 2 3 4 5 6 7 8 9 10 11 12 13 14 15 16
000
FTUS43 KMPX 191120
TAFRWF
TAF
KRWF 191120Z 1912/2012 28003KT 1/4SM FG VV002
     FM191330 26003KT 3SM BR SCT003
     FM191400 24005KT P6SM SKC
     FM191900 17009KT P6SM SKC
     FM200100 16006KT P6SM SKC=

USA.gov is the U.S. government's official web portal to all federal, state and local government web resources and services.